sensor_id;sensor_type;location;lat;lon;timestamp;P1;durP1;ratioP1;P2;durP2;ratioP2
18689;SDS011;9782;52.930;15.562;2023-06-24T15:59:21;7.93;;;5.70;;
18689;SDS011;9782;52.930;15.562;2023-06-24T16:01:47;9.48;;;6.53;;
18689;SDS011;9782;52.930;15.562;2023-06-24T16:04:14;6.88;;;5.45;;
18689;SDS011;9782;52.930;15.562;2023-06-24T16:06:41;6.68;;;5.25;;
18689;SDS011;9782;52.930;15.562;2023-06-24T16:09:08;7.00;;;5.60;;
18689;SDS011;9782;52.930;15.562;2023-06-24T16:11:35;5.20;;;4.63;;
18689;SDS011;9782;52.930;15.562;2023-06-24T16:14:02;7.43;;;4.88;;
18689;SDS011;9782;52.930;15.562;2023-06-24T16:16:30;5.93;;;4.80;;
18689;SDS011;9782;52.930;15.562;2023-06-24T16:18:57;5.97;;;4.90;;
18689;SDS011;9782;52.930;15.562;2023-06-24T16:21:24;7.97;;;6.55;;
18689;SDS011;9782;52.930;15.562;2023-06-24T16:23:50;8.00;;;6.53;;
18689;SDS011;9782;52.930;15.562;2023-06-24T16:26:17;5.20;;;4.70;;
18689;SDS011;9782;52.930;15.562;2023-06-24T16:28:44;6.45;;;5.78;;
18689;SDS011;9782;52.930;15.562;2023-06-24T16:31:12;6.18;;;5.07;;
18689;SDS011;9782;52.930;15.562;2023-06-24T16:33:40;4.20;;;3.80;;
18689;SDS011;9782;52.930;15.562;2023-06-24T16:36:07;4.00;;;3.60;;
18689;SDS011;9782;52.930;15.562;2023-06-24T16:38:33;4.07;;;3.65;;
18689;SDS011;9782;52.930;15.562;2023-06-24T16:41:00;5.88;;;4.18;;
18689;SDS011;9782;52.930;15.562;2023-06-24T16:43:27;4.30;;;3.47;;
18689;SDS011;9782;52.930;15.562;2023-06-24T16:45:54;4.38;;;3.38;;
18689;SDS011;9782;52.930;15.562;2023-06-24T16:48:20;4.45;;;3.65;;
18689;SDS011;9782;52.930;15.562;2023-06-24T16:50:49;4.75;;;3.55;;
18689;SDS011;9782;52.930;15.562;2023-06-24T16:53:15;4.30;;;2.97;;
18689;SDS011;9782;52.930;15.562;2023-06-24T16:55:42;3.72;;;3.33;;
18689;SDS011;9782;52.930;15.562;2023-06-24T16:58:09;4.30;;;3.15;;
18689;SDS011;9782;52.930;15.562;2023-06-24T17:00:36;3.63;;;2.75;;
18689;SDS011;9782;52.930;15.562;2023-06-24T17:03:02;3.38;;;3.08;;
18689;SDS011;9782;52.930;15.562;2023-06-24T17:05:29;3.38;;;2.78;;
18689;SDS011;9782;52.930;15.562;2023-06-24T17:07:57;3.88;;;3.15;;
18689;SDS011;9782;52.930;15.562;2023-06-24T17:10:24;3.22;;;2.67;;
18689;SDS011;9782;52.930;15.562;2023-06-24T17:12:51;4.68;;;2.97;;
18689;SDS011;9782;52.930;15.562;2023-06-24T17:15:18;4.18;;;2.95;;
18689;SDS011;9782;52.930;15.562;2023-06-24T17:17:45;2.92;;;2.70;;
18689;SDS011;9782;52.930;15.562;2023-06-24T17:20:11;2.92;;;2.60;;
18689;SDS011;9782;52.930;15.562;2023-06-24T17:22:38;3.45;;;2.47;;
18689;SDS011;9782;52.930;15.562;2023-06-24T17:25:07;3.55;;;2.88;;
18689;SDS011;9782;52.930;15.562;2023-06-24T17:27:34;6.55;;;3.70;;
18689;SDS011;9782;52.930;15.562;2023-06-24T17:30:01;5.57;;;4.93;;
18689;SDS011;9782;52.930;15.562;2023-06-24T17:32:28;4.70;;;3.00;;
18689;SDS011;9782;52.930;15.562;2023-06-24T17:34:55;4.47;;;2.63;;
18689;SDS011;9782;52.930;15.562;2023-06-24T17:37:22;3.05;;;2.75;;
18689;SDS011;9782;52.930;15.562;2023-06-24T17:39:49;3.25;;;2.90;;
18689;SDS011;9782;52.930;15.562;2023-06-24T17:42:17;3.45;;;3.05;;
18689;SDS011;9782;52.930;15.562;2023-06-24T17:44:45;4.68;;;3.10;;
18689;SDS011;9782;52.930;15.562;2023-06-24T17:47:11;4.15;;;3.35;;
18689;SDS011;9782;52.930;15.562;2023-06-24T17:49:38;4.75;;;3.38;;
18689;SDS011;9782;52.930;15.562;2023-06-24T17:52:05;3.97;;;3.60;;
18689;SDS011;9782;52.930;15.562;2023-06-24T17:54:32;5.07;;;3.33;;
18689;SDS011;9782;52.930;15.562;2023-06-24T17:56:59;5.55;;;3.40;;
18689;SDS011;9782;52.930;15.562;2023-06-24T17:59:27;6.60;;;3.40;;
18689;SDS011;9782;52.930;15.562;2023-06-24T18:01:54;3.42;;;3.13;;
18689;SDS011;9782;52.930;15.562;2023-06-24T18:04:21;4.10;;;3.53;;
18689;SDS011;9782;52.930;15.562;2023-06-24T18:06:48;3.80;;;3.40;;
18689;SDS011;9782;52.930;15.562;2023-06-24T18:09:15;3.90;;;3.20;;
18689;SDS011;9782;52.930;15.562;2023-06-24T18:11:44;3.60;;;3.17;;
18689;SDS011;9782;52.930;15.562;2023-06-24T18:14:11;5.13;;;3.60;;
18689;SDS011;9782;52.930;15.562;2023-06-24T18:16:40;6.88;;;3.60;;
18689;SDS011;9782;52.930;15.562;2023-06-24T18:19:13;5.25;;;3.65;;
18689;SDS011;9782;52.930;15.562;2023-06-24T18:21:43;4.65;;;3.90;;
18689;SDS011;9782;52.930;15.562;2023-06-24T18:24:10;4.53;;;3.60;;
18689;SDS011;9782;52.930;15.562;2023-06-24T18:26:37;5.03;;;3.80;;
18689;SDS011;9782;52.930;15.562;2023-06-24T18:29:04;4.13;;;3.70;;
18689;SDS011;9782;52.930;15.562;2023-06-24T18:31:30;4.20;;;3.80;;
18689;SDS011;9782;52.930;15.562;2023-06-24T18:33:59;4.57;;;3.83;;
18689;SDS011;9782;52.930;15.562;2023-06-24T18:36:25;5.25;;;4.00;;
18689;SDS011;9782;52.930;15.562;2023-06-24T18:38:52;6.80;;;3.92;;
18689;SDS011;9782;52.930;15.562;2023-06-24T18:41:19;4.72;;;3.83;;
18689;SDS011;9782;52.930;15.562;2023-06-24T18:43:46;4.97;;;3.72;;
18689;SDS011;9782;52.930;15.562;2023-06-24T18:46:12;5.65;;;3.88;;
18689;SDS011;9782;52.930;15.562;2023-06-24T18:48:39;6.20;;;3.88;;
18689;SDS011;9782;52.930;15.562;2023-06-24T18:51:07;7.13;;;5.40;;
18689;SDS011;9782;52.930;15.562;2023-06-24T18:53:34;6.85;;;4.85;;
18689;SDS011;9782;52.930;15.562;2023-06-24T18:56:01;7.15;;;4.60;;
18689;SDS011;9782;52.930;15.562;2023-06-24T18:58:28;5.57;;;4.30;;
18689;SDS011;9782;52.930;15.562;2023-06-24T19:00:55;4.78;;;4.28;;
18689;SDS011;9782;52.930;15.562;2023-06-24T19:03:22;6.20;;;4.05;;
18689;SDS011;9782;52.930;15.562;2023-06-24T19:05:48;5.85;;;4.53;;
18689;SDS011;9782;52.930;15.562;2023-06-24T19:08:17;4.88;;;3.80;;
18689;SDS011;9782;52.930;15.562;2023-06-24T19:10:43;5.75;;;4.40;;
18689;SDS011;9782;52.930;15.562;2023-06-24T19:13:10;5.95;;;4.20;;
18689;SDS011;9782;52.930;15.562;2023-06-24T19:15:37;5.70;;;3.95;;
18689;SDS011;9782;52.930;15.562;2023-06-24T19:18:04;5.65;;;4.35;;
18689;SDS011;9782;52.930;15.562;2023-06-24T19:20:31;4.28;;;3.83;;
18689;SDS011;9782;52.930;15.562;2023-06-24T19:22:57;5.03;;;4.20;;
18689;SDS011;9782;52.930;15.562;2023-06-24T19:25:26;5.93;;;4.53;;
18689;SDS011;9782;52.930;15.562;2023-06-24T19:27:52;6.20;;;3.92;;
18689;SDS011;9782;52.930;15.562;2023-06-24T19:30:19;6.75;;;4.07;;
18689;SDS011;9782;52.930;15.562;2023-06-24T19:32:46;5.00;;;4.43;;
18689;SDS011;9782;52.930;15.562;2023-06-24T19:35:13;4.80;;;4.30;;
18689;SDS011;9782;52.930;15.562;2023-06-24T19:37:40;7.95;;;4.28;;
18689;SDS011;9782;52.930;15.562;2023-06-24T19:40:07;5.82;;;4.35;;
18689;SDS011;9782;52.930;15.562;2023-06-24T19:42:37;5.22;;;4.03;;
18689;SDS011;9782;52.930;15.562;2023-06-24T19:45:04;5.05;;;3.97;;
18689;SDS011;9782;52.930;15.562;2023-06-24T19:47:32;9.05;;;4.28;;
18689;SDS011;9782;52.930;15.562;2023-06-24T19:49:58;5.22;;;4.10;;
18689;SDS011;9782;52.930;15.562;2023-06-24T19:52:25;4.53;;;4.07;;
18689;SDS011;9782;52.930;15.562;2023-06-24T19:54:52;7.07;;;4.35;;
18689;SDS011;9782;52.930;15.562;2023-06-24T19:57:19;4.72;;;3.88;;
18689;SDS011;9782;52.930;15.562;2023-06-24T19:59:47;5.30;;;4.07;;
18689;SDS011;9782;52.930;15.562;2023-06-24T20:02:15;4.50;;;3.78;;
18689;SDS011;9782;52.930;15.562;2023-06-24T20:04:42;4.20;;;3.70;;
18689;SDS011;9782;52.930;15.562;2023-06-24T20:07:09;5.65;;;3.67;;
18689;SDS011;9782;52.930;15.562;2023-06-24T20:09:35;4.95;;;3.70;;
18689;SDS011;9782;52.930;15.562;2023-06-24T20:12:02;4.50;;;3.60;;
18689;SDS011;9782;52.930;15.562;2023-06-24T20:14:29;5.40;;;3.40;;
18689;SDS011;9782;52.930;15.562;2023-06-24T20:16:57;5.85;;;3.75;;
18689;SDS011;9782;52.930;15.562;2023-06-24T20:19:24;5.20;;;3.75;;
18689;SDS011;9782;52.930;15.562;2023-06-24T20:21:51;4.47;;;3.72;;
18689;SDS011;9782;52.930;15.562;2023-06-24T20:24:18;5.22;;;3.60;;
18689;SDS011;9782;52.930;15.562;2023-06-24T20:26:44;4.25;;;3.50;;
18689;SDS011;9782;52.930;15.562;2023-06-24T20:29:11;5.90;;;3.83;;
18689;SDS011;9782;52.930;15.562;2023-06-24T20:31:38;3.92;;;3.53;;
18689;SDS011;9782;52.930;15.562;2023-06-24T20:34:06;4.95;;;3.90;;
18689;SDS011;9782;52.930;15.562;2023-06-24T20:36:33;6.18;;;3.80;;
18689;SDS011;9782;52.930;15.562;2023-06-24T20:39:00;5.53;;;3.55;;
18689;SDS011;9782;52.930;15.562;2023-06-24T20:41:28;4.80;;;3.67;;
18689;SDS011;9782;52.930;15.562;2023-06-24T20:43:56;5.68;;;3.67;;
18689;SDS011;9782;52.930;15.562;2023-06-24T20:46:23;4.85;;;3.42;;
18689;SDS011;9782;52.930;15.562;2023-06-24T20:48:50;6.85;;;3.83;;
18689;SDS011;9782;52.930;15.562;2023-06-24T20:51:18;4.65;;;3.92;;
18689;SDS011;9782;52.930;15.562;2023-06-24T20:53:45;4.53;;;3.90;;
18689;SDS011;9782;52.930;15.562;2023-06-24T20:56:12;4.88;;;4.00;;
18689;SDS011;9782;52.930;15.562;2023-06-24T20:58:39;6.10;;;4.40;;
18689;SDS011;9782;52.930;15.562;2023-06-24T21:01:07;5.65;;;3.70;;
18689;SDS011;9782;52.930;15.562;2023-06-24T21:03:34;6.43;;;4.22;;
18689;SDS011;9782;52.930;15.562;2023-06-24T21:06:01;5.28;;;4.22;;
18689;SDS011;9782;52.930;15.562;2023-06-24T21:08:30;5.00;;;4.32;;
18689;SDS011;9782;52.930;15.562;2023-06-24T21:10:57;6.25;;;3.97;;
18689;SDS011;9782;52.930;15.562;2023-06-24T21:13:24;7.25;;;4.07;;
18689;SDS011;9782;52.930;15.562;2023-06-24T21:15:51;5.93;;;4.00;;
18689;SDS011;9782;52.930;15.562;2023-06-24T21:18:18;5.30;;;4.55;;
18689;SDS011;9782;52.930;15.562;2023-06-24T21:20:45;4.70;;;3.88;;
18689;SDS011;9782;52.930;15.562;2023-06-24T21:23:12;5.15;;;4.03;;
18689;SDS011;9782;52.930;15.562;2023-06-24T21:25:40;5.60;;;4.05;;
18689;SDS011;9782;52.930;15.562;2023-06-24T21:28:08;7.93;;;3.75;;
18689;SDS011;9782;52.930;15.562;2023-06-24T21:30:34;5.63;;;4.03;;
18689;SDS011;9782;52.930;15.562;2023-06-24T21:33:01;5.28;;;4.18;;
18689;SDS011;9782;52.930;15.562;2023-06-24T21:35:28;5.32;;;4.35;;
18689;SDS011;9782;52.930;15.562;2023-06-24T21:37:55;7.13;;;4.43;;
18689;SDS011;9782;52.930;15.562;2023-06-24T21:40:22;5.22;;;4.18;;
18689;SDS011;9782;52.930;15.562;2023-06-24T21:42:50;7.43;;;4.28;;
18689;SDS011;9782;52.930;15.562;2023-06-24T21:45:17;7.05;;;4.15;;
18689;SDS011;9782;52.930;15.562;2023-06-24T21:47:44;5.38;;;4.25;;
18689;SDS011;9782;52.930;15.562;2023-06-24T21:50:10;5.53;;;4.18;;
18689;SDS011;9782;52.930;15.562;2023-06-24T21:52:37;5.38;;;4.28;;
18689;SDS011;9782;52.930;15.562;2023-06-24T21:55:04;6.82;;;4.63;;
18689;SDS011;9782;52.930;15.562;2023-06-24T21:57:32;6.20;;;4.82;;
18689;SDS011;9782;52.930;15.562;2023-06-24T22:00:00;6.40;;;4.63;;
18689;SDS011;9782;52.930;15.562;2023-06-24T22:02:30;5.78;;;4.57;;
18689;SDS011;9782;52.930;15.562;2023-06-24T22:04:56;4.78;;;4.03;;
18689;SDS011;9782;52.930;15.562;2023-06-24T22:07:23;6.45;;;4.82;;
18689;SDS011;9782;52.930;15.562;2023-06-24T22:09:50;5.68;;;4.60;;
18689;SDS011;9782;52.930;15.562;2023-06-24T22:12:17;7.05;;;4.18;;
18689;SDS011;9782;52.930;15.562;2023-06-24T22:14:43;5.53;;;4.40;;
18689;SDS011;9782;52.930;15.562;2023-06-24T22:17:11;7.82;;;4.50;;
18689;SDS011;9782;52.930;15.562;2023-06-24T22:19:38;6.40;;;4.25;;
18689;SDS011;9782;52.930;15.562;2023-06-24T22:22:05;7.15;;;4.68;;
18689;SDS011;9782;52.930;15.562;2023-06-24T22:24:32;5.38;;;4.30;;
18689;SDS011;9782;52.930;15.562;2023-06-24T22:26:59;8.32;;;4.10;;
18689;SDS011;9782;52.930;15.562;2023-06-24T22:29:25;6.70;;;4.25;;
18689;SDS011;9782;52.930;15.562;2023-06-24T22:31:52;6.72;;;4.53;;
18689;SDS011;9782;52.930;15.562;2023-06-24T22:34:20;6.70;;;4.00;;
18689;SDS011;9782;52.930;15.562;2023-06-24T22:36:47;5.20;;;4.20;;
18689;SDS011;9782;52.930;15.562;2023-06-24T22:39:14;6.40;;;4.50;;
18689;SDS011;9782;52.930;15.562;2023-06-24T22:41:40;5.60;;;4.15;;
18689;SDS011;9782;52.930;15.562;2023-06-24T22:44:07;5.40;;;4.38;;
18689;SDS011;9782;52.930;15.562;2023-06-24T22:46:34;5.50;;;3.88;;
18689;SDS011;9782;52.930;15.562;2023-06-24T22:49:01;4.72;;;4.00;;
18689;SDS011;9782;52.930;15.562;2023-06-24T22:51:29;6.68;;;4.03;;
18689;SDS011;9782;52.930;15.562;2023-06-24T22:53:56;4.93;;;4.07;;
18689;SDS011;9782;52.930;15.562;2023-06-24T22:56:22;4.68;;;3.90;;
18689;SDS011;9782;52.930;15.562;2023-06-24T22:58:49;6.60;;;4.20;;
18689;SDS011;9782;52.930;15.562;2023-06-24T23:01:16;8.85;;;4.20;;
18689;SDS011;9782;52.930;15.562;2023-06-24T23:03:43;7.60;;;4.20;;
18689;SDS011;9782;52.930;15.562;2023-06-24T23:06:10;9.32;;;4.45;;
18689;SDS011;9782;52.930;15.562;2023-06-24T23:08:39;7.47;;;4.57;;
18689;SDS011;9782;52.930;15.562;2023-06-24T23:11:06;5.32;;;4.07;;
18689;SDS011;9782;52.930;15.562;2023-06-24T23:13:34;7.07;;;3.97;;
18689;SDS011;9782;52.930;15.562;2023-06-24T23:16:02;6.38;;;4.18;;
18689;SDS011;9782;52.930;15.562;2023-06-24T23:18:29;6.72;;;4.25;;
18689;SDS011;9782;52.930;15.562;2023-06-24T23:20:56;5.13;;;3.90;;
18689;SDS011;9782;52.930;15.562;2023-06-24T23:23:23;6.75;;;3.80;;
18689;SDS011;9782;52.930;15.562;2023-06-24T23:25:53;5.00;;;3.90;;
18689;SDS011;9782;52.930;15.562;2023-06-24T23:28:20;5.60;;;4.13;;
18689;SDS011;9782;52.930;15.562;2023-06-24T23:30:48;4.28;;;3.60;;
18689;SDS011;9782;52.930;15.562;2023-06-24T23:33:19;7.45;;;4.35;;
18689;SDS011;9782;52.930;15.562;2023-06-24T23:35:46;6.63;;;4.47;;
18689;SDS011;9782;52.930;15.562;2023-06-24T23:38:14;5.93;;;3.80;;
18689;SDS011;9782;52.930;15.562;2023-06-24T23:40:43;6.57;;;4.03;;
18689;SDS011;9782;52.930;15.562;2023-06-24T23:43:12;6.85;;;4.10;;
18689;SDS011;9782;52.930;15.562;2023-06-24T23:45:40;5.07;;;3.67;;
18689;SDS011;9782;52.930;15.562;2023-06-24T23:48:08;5.53;;;3.97;;
18689;SDS011;9782;52.930;15.562;2023-06-24T23:50:34;4.88;;;4.05;;
18689;SDS011;9782;52.930;15.562;2023-06-24T23:53:01;4.68;;;3.22;;
18689;SDS011;9782;52.930;15.562;2023-06-24T23:55:28;4.68;;;3.25;;
18689;SDS011;9782;52.930;15.562;2023-06-24T23:57:55;5.40;;;3.90;;
